createdAt,value
2023-05-10T00:00:47.699Z,7.80
2023-05-10T00:03:10.423Z,7.95
2023-05-10T00:05:33.700Z,8.75
2023-05-10T00:07:56.365Z,8.93
2023-05-10T00:10:19.343Z,10.20
2023-05-10T00:12:41.973Z,8.33
2023-05-10T00:15:05.245Z,8.80
2023-05-10T00:17:27.859Z,9.70
2023-05-10T00:19:50.769Z,8.93
2023-05-10T00:22:13.660Z,8.77
2023-05-10T00:24:36.377Z,9.73
2023-05-10T00:26:58.991Z,8.23
2023-05-10T00:29:21.686Z,9.23
2023-05-10T00:31:44.395Z,10.13
2023-05-10T00:34:07.194Z,8.48
2023-05-10T00:36:30.054Z,10.33
2023-05-10T00:38:52.951Z,8.65
2023-05-10T00:41:16.269Z,10.45
2023-05-10T00:43:39.041Z,9.77
2023-05-10T00:46:01.982Z,10.95
2023-05-10T00:48:25.089Z,11.50
2023-05-10T00:50:48.222Z,10.05
2023-05-10T00:53:11.340Z,12.43
2023-05-10T00:55:34.028Z,10.93
2023-05-10T00:57:57.078Z,9.98
2023-05-10T01:00:20.191Z,11.10
2023-05-10T01:02:43.416Z,8.95
2023-05-10T01:05:07.041Z,8.77
2023-05-10T01:07:29.932Z,9.50
2023-05-10T01:09:52.976Z,8.60
2023-05-10T01:12:16.321Z,10.13
2023-05-10T01:14:39.274Z,8.85
2023-05-10T01:17:03.289Z,8.57
2023-05-10T01:19:28.016Z,8.65
2023-05-10T01:21:59.615Z,9.57
2023-05-10T01:24:41.110Z,8.67
2023-05-10T01:27:44.084Z,9.20
2023-05-10T01:30:22.584Z,7.85
2023-05-10T01:32:51.631Z,11.05
2023-05-10T01:35:33.088Z,9.50
2023-05-10T01:38:08.859Z,8.67
2023-05-10T01:40:35.169Z,9.90
2023-05-10T01:43:07.614Z,9.43
2023-05-10T01:45:36.102Z,9.85
2023-05-10T01:48:12.749Z,8.52
2023-05-10T01:50:38.817Z,9.77
2023-05-10T01:53:03.770Z,8.20
2023-05-10T01:55:31.449Z,10.43
2023-05-10T01:58:10.289Z,9.82
2023-05-10T02:00:34.433Z,8.60
2023-05-10T02:02:57.583Z,9.37
2023-05-10T02:05:21.592Z,9.23
2023-05-10T02:07:45.405Z,9.45
2023-05-10T02:10:10.398Z,9.23
2023-05-10T02:12:38.697Z,9.00
2023-05-10T02:15:03.641Z,9.47
2023-05-10T02:17:26.949Z,9.35
2023-05-10T02:19:52.117Z,9.80
2023-05-10T02:22:16.439Z,9.05
2023-05-10T02:24:40.874Z,8.93
2023-05-10T02:27:04.882Z,8.17
2023-05-10T02:29:28.390Z,9.68
2023-05-10T02:31:53.763Z,10.38
2023-05-10T02:34:16.531Z,8.55
2023-05-10T02:36:40.761Z,10.43
2023-05-10T02:39:03.930Z,9.73
2023-05-10T02:41:28.040Z,10.38
2023-05-10T02:43:54.508Z,10.65
2023-05-10T02:46:17.298Z,8.07
2023-05-10T02:48:40.188Z,9.77
2023-05-10T02:51:08.205Z,8.87
2023-05-10T02:53:33.275Z,8.27
2023-05-10T02:55:59.869Z,9.20
2023-05-10T02:58:22.842Z,9.88
2023-05-10T03:00:46.259Z,9.52
2023-05-10T03:03:09.489Z,9.40
2023-05-10T03:05:32.518Z,10.48
2023-05-10T03:07:58.012Z,8.45
2023-05-10T03:10:27.502Z,9.50
2023-05-10T03:12:54.926Z,8.55
2023-05-10T03:15:39.080Z,8.73
2023-05-10T03:18:28.185Z,9.18
2023-05-10T03:20:56.670Z,8.52
2023-05-10T03:23:22.693Z,15.70
2023-05-10T03:25:47.840Z,8.48
2023-05-10T03:28:11.021Z,10.43
2023-05-10T03:30:34.613Z,8.60
2023-05-10T03:32:58.102Z,8.65
2023-05-10T03:35:21.163Z,9.90
2023-05-10T03:37:43.978Z,8.93
2023-05-10T03:40:07.534Z,8.70
2023-05-10T03:42:32.551Z,9.43
2023-05-10T03:44:55.192Z,8.02
2023-05-10T03:47:17.773Z,9.40
2023-05-10T03:49:40.508Z,7.38
2023-05-10T03:52:03.512Z,7.80
2023-05-10T03:54:27.594Z,8.23
2023-05-10T03:56:50.211Z,9.82
2023-05-10T03:59:14.794Z,10.93
2023-05-10T04:01:37.414Z,6.90
2023-05-10T04:04:00.224Z,9.27
2023-05-10T04:06:23.271Z,8.20
2023-05-10T04:08:46.691Z,9.27
2023-05-10T04:11:10.513Z,7.80
2023-05-10T04:13:33.319Z,7.95
2023-05-10T04:15:55.839Z,8.83
2023-05-10T04:18:18.856Z,7.75
2023-05-10T04:20:41.637Z,8.50
2023-05-10T04:23:04.281Z,8.25
2023-05-10T04:25:26.833Z,7.68
2023-05-10T04:27:49.478Z,7.23
2023-05-10T04:30:12.558Z,7.32
2023-05-10T04:32:35.692Z,8.95
2023-05-10T04:34:58.301Z,8.63
2023-05-10T04:37:22.416Z,9.25
2023-05-10T04:39:45.104Z,9.50
2023-05-10T04:42:08.226Z,10.23
2023-05-10T04:44:31.736Z,9.68
2023-05-10T04:46:54.417Z,8.52
2023-05-10T04:49:17.801Z,8.90
2023-05-10T04:51:40.632Z,8.67
2023-05-10T04:54:06.427Z,10.30
2023-05-10T04:56:29.712Z,9.38
2023-05-10T04:58:52.342Z,8.65
2023-05-10T05:01:15.096Z,10.10
2023-05-10T05:03:38.095Z,9.65
2023-05-10T05:06:00.846Z,9.05
2023-05-10T05:08:23.904Z,12.60
2023-05-10T05:10:46.546Z,10.40
2023-05-10T05:13:09.266Z,11.40
2023-05-10T05:15:31.932Z,9.73
2023-05-10T05:17:54.776Z,8.57
2023-05-10T05:20:18.343Z,8.77
2023-05-10T05:22:41.455Z,9.80
2023-05-10T05:25:04.533Z,9.30
2023-05-10T05:27:28.952Z,10.10
2023-05-10T05:29:53.237Z,9.55
2023-05-10T05:32:15.937Z,8.48
2023-05-10T05:34:38.565Z,10.45
2023-05-10T05:37:01.329Z,9.75
2023-05-10T05:39:24.118Z,8.30
2023-05-10T05:41:47.480Z,7.95
2023-05-10T05:44:10.201Z,9.60
2023-05-10T05:46:33.242Z,8.98
2023-05-10T05:48:55.941Z,10.95
2023-05-10T05:51:18.592Z,9.40
2023-05-10T05:53:41.403Z,7.70
2023-05-10T05:56:04.764Z,9.23
2023-05-10T05:58:28.024Z,9.27
2023-05-10T06:00:51.371Z,8.02
2023-05-10T06:03:14.102Z,12.38
2023-05-10T06:05:36.851Z,9.10
2023-05-10T06:08:01.555Z,7.45
2023-05-10T06:10:24.174Z,8.55
2023-05-10T06:12:46.927Z,9.35
2023-05-10T06:15:10.419Z,7.75
2023-05-10T06:17:33.217Z,7.18
2023-05-10T06:19:56.562Z,7.90
2023-05-10T06:22:19.285Z,10.43
2023-05-10T06:24:42.555Z,7.20
2023-05-10T06:27:05.366Z,7.70
2023-05-10T06:29:28.031Z,11.23
2023-05-10T06:31:50.774Z,7.82
2023-05-10T06:34:14.557Z,8.40
2023-05-10T06:36:37.320Z,7.57
2023-05-10T06:39:00.158Z,7.55
2023-05-10T06:41:24.736Z,11.70
2023-05-10T06:43:47.741Z,6.63
2023-05-10T06:46:10.601Z,7.55
2023-05-10T06:48:33.776Z,6.00
2023-05-10T06:50:56.421Z,8.15
2023-05-10T06:53:38.950Z,8.65
2023-05-10T06:56:01.774Z,8.23
2023-05-10T06:58:24.406Z,7.18
2023-05-10T07:00:48.117Z,9.90
2023-05-10T07:03:11.895Z,8.65
2023-05-10T07:05:34.931Z,6.90
2023-05-10T07:07:57.626Z,6.60
2023-05-10T07:10:20.413Z,8.25
2023-05-10T07:12:43.302Z,9.10
2023-05-10T07:15:06.885Z,8.88
2023-05-10T07:17:29.790Z,7.78
2023-05-10T07:19:52.548Z,6.22
2023-05-10T07:22:16.191Z,6.97
2023-05-10T07:24:38.975Z,7.43
2023-05-10T07:27:01.673Z,6.40
2023-05-10T07:29:24.362Z,7.30
2023-05-10T07:31:47.225Z,8.30
2023-05-10T07:34:10.364Z,5.63
2023-05-10T07:36:33.532Z,7.22
2023-05-10T07:38:57.592Z,6.90
2023-05-10T07:41:20.230Z,7.43
2023-05-10T07:43:42.974Z,7.38
2023-05-10T07:46:06.464Z,7.18
2023-05-10T07:48:29.411Z,6.00
2023-05-10T07:50:52.424Z,6.00
2023-05-10T07:53:15.250Z,5.50
2023-05-10T07:55:37.892Z,5.82
2023-05-10T07:58:03.766Z,5.95
2023-05-10T08:00:28.340Z,6.55
2023-05-10T08:02:57.483Z,5.57
2023-05-10T08:05:27.350Z,5.00
2023-05-10T08:07:52.930Z,8.82
2023-05-10T08:10:15.563Z,9.40
2023-05-10T08:12:39.298Z,5.78
2023-05-10T08:15:01.958Z,7.82
2023-05-10T08:17:24.960Z,7.07
2023-05-10T08:19:47.530Z,7.57
2023-05-10T08:22:10.372Z,5.75
2023-05-10T08:24:32.983Z,6.38
2023-05-10T08:26:56.125Z,7.60
2023-05-10T08:29:18.840Z,7.65
2023-05-10T08:31:41.524Z,7.35
2023-05-10T08:34:04.213Z,5.57
2023-05-10T08:36:27.510Z,6.90
2023-05-10T08:38:53.242Z,6.78
2023-05-10T08:41:15.980Z,8.13
2023-05-10T08:43:39.265Z,5.15
2023-05-10T08:46:04.102Z,6.55
2023-05-10T08:48:30.046Z,7.78
2023-05-10T08:50:58.586Z,6.43
2023-05-10T08:53:22.237Z,9.60
2023-05-10T08:55:45.018Z,5.95
2023-05-10T08:58:07.992Z,7.05
2023-05-10T09:00:31.890Z,7.82
2023-05-10T09:02:54.822Z,6.30
2023-05-10T09:05:18.972Z,5.22
2023-05-10T09:07:42.556Z,4.85
2023-05-10T09:10:06.442Z,5.55
2023-05-10T09:12:29.270Z,7.30
2023-05-10T09:14:53.649Z,7.40
2023-05-10T09:17:57.906Z,5.03
2023-05-10T09:20:20.804Z,8.73
2023-05-10T09:22:43.335Z,5.68
2023-05-10T09:25:06.387Z,6.03
2023-05-10T09:27:29.270Z,5.28
2023-05-10T09:29:55.445Z,6.68
2023-05-10T09:32:18.039Z,6.63
2023-05-10T09:34:41.447Z,4.78
2023-05-10T09:37:07.255Z,5.50
2023-05-10T09:39:39.280Z,5.38
2023-05-10T09:42:10.181Z,7.38
2023-05-10T09:44:34.591Z,9.88
2023-05-10T09:46:57.226Z,6.35
2023-05-10T09:49:21.889Z,6.45
2023-05-10T09:51:44.922Z,5.28
2023-05-10T09:54:12.659Z,4.57
2023-05-10T09:56:41.149Z,9.10
2023-05-10T09:59:04.550Z,5.07
2023-05-10T10:01:27.726Z,4.93
2023-05-10T10:03:51.095Z,4.38
2023-05-10T10:06:29.587Z,8.10
2023-05-10T10:08:56.240Z,4.35
2023-05-10T10:11:19.518Z,5.68
2023-05-10T10:13:42.150Z,7.15
2023-05-10T10:16:05.311Z,5.10
2023-05-10T10:18:29.767Z,4.78
2023-05-10T10:20:53.316Z,6.28
2023-05-10T10:23:17.603Z,8.10
2023-05-10T10:25:40.834Z,5.78
2023-05-10T10:28:26.123Z,4.55
2023-05-10T10:30:54.745Z,3.83
2023-05-10T10:33:27.722Z,5.63
2023-05-10T10:35:53.435Z,6.28
2023-05-10T10:38:16.593Z,5.40
2023-05-10T10:40:39.734Z,5.85
2023-05-10T10:43:25.154Z,5.22
2023-05-10T10:46:15.349Z,4.68
2023-05-10T10:48:38.227Z,8.32
2023-05-10T10:51:01.464Z,3.50
2023-05-10T10:53:29.087Z,4.28
2023-05-10T10:56:07.188Z,4.45
2023-05-10T10:58:32.814Z,6.07
2023-05-10T11:01:11.694Z,4.57
2023-05-10T11:03:34.492Z,3.67
2023-05-10T11:05:59.776Z,3.60
2023-05-10T11:08:34.015Z,4.03
2023-05-10T11:11:01.040Z,3.70
2023-05-10T11:13:32.874Z,5.68
2023-05-10T11:15:58.160Z,4.75
2023-05-10T11:18:28.115Z,3.35
2023-05-10T11:21:03.815Z,3.85
2023-05-10T11:23:32.476Z,6.20
2023-05-10T11:25:55.462Z,4.03
2023-05-10T11:28:20.684Z,3.10
2023-05-10T11:30:45.682Z,4.35
2023-05-10T11:33:09.820Z,5.57
2023-05-10T11:35:41.027Z,3.67
2023-05-10T11:38:07.592Z,8.90
2023-05-10T11:40:30.229Z,5.55
2023-05-10T11:42:52.997Z,4.13
2023-05-10T11:45:16.212Z,3.38
2023-05-10T11:47:42.645Z,5.93
2023-05-10T11:50:07.025Z,3.15
2023-05-10T11:52:30.209Z,3.72
2023-05-10T11:54:54.539Z,3.35
2023-05-10T11:57:17.212Z,5.63
2023-05-10T11:59:42.473Z,3.80
2023-05-10T12:02:05.921Z,6.05
2023-05-10T12:04:30.601Z,6.55
2023-05-10T12:06:53.546Z,3.42
2023-05-10T12:09:17.673Z,3.00
2023-05-10T12:11:44.247Z,3.08
2023-05-10T12:14:07.807Z,5.07
2023-05-10T12:16:31.016Z,5.32
2023-05-10T12:18:56.914Z,3.75
2023-05-10T12:21:21.503Z,3.03
2023-05-10T12:23:47.019Z,3.65
2023-05-10T12:26:11.277Z,4.93
2023-05-10T12:28:34.616Z,3.35
2023-05-10T12:30:58.988Z,3.17
2023-05-10T12:33:21.578Z,3.78
2023-05-10T12:35:52.750Z,6.40
2023-05-10T12:38:30.495Z,5.40
2023-05-10T12:40:53.309Z,4.75
2023-05-10T12:43:16.174Z,5.40
2023-05-10T12:45:38.859Z,4.18
2023-05-10T12:48:01.659Z,3.40
2023-05-10T12:50:25.377Z,3.90
2023-05-10T12:52:48.089Z,3.45
2023-05-10T12:55:11.078Z,3.10
2023-05-10T12:57:33.754Z,4.47
2023-05-10T12:59:56.853Z,3.60
2023-05-10T13:02:19.529Z,2.58
2023-05-10T13:04:43.024Z,3.55
2023-05-10T13:07:05.694Z,3.08
2023-05-10T13:09:31.942Z,5.63
2023-05-10T13:11:55.304Z,4.00
2023-05-10T13:14:18.125Z,4.22
2023-05-10T13:16:40.733Z,4.63
2023-05-10T13:19:04.049Z,2.65
2023-05-10T13:21:27.164Z,3.80
2023-05-10T13:23:50.152Z,3.95
2023-05-10T13:26:12.662Z,3.03
2023-05-10T13:28:35.391Z,3.13
2023-05-10T13:30:58.204Z,6.45
2023-05-10T13:33:21.108Z,3.65
2023-05-10T13:35:43.765Z,4.25
2023-05-10T13:38:09.062Z,5.43
2023-05-10T13:40:31.982Z,2.67
2023-05-10T13:42:54.879Z,4.97
2023-05-10T13:45:17.732Z,3.75
2023-05-10T13:47:40.645Z,7.28
2023-05-10T13:50:04.495Z,3.78
2023-05-10T13:52:27.729Z,3.85
2023-05-10T13:54:50.488Z,4.40
2023-05-10T13:57:15.002Z,4.80
2023-05-10T13:59:37.631Z,6.05
2023-05-10T14:02:03.545Z,3.92
2023-05-10T14:04:26.556Z,4.57
2023-05-10T14:06:49.204Z,3.65
2023-05-10T14:09:11.880Z,4.28
2023-05-10T14:11:34.543Z,4.55
2023-05-10T14:13:57.314Z,4.60
2023-05-10T14:18:43.803Z,4.20
2023-05-10T14:21:06.492Z,3.28
2023-05-10T14:23:29.854Z,2.72
2023-05-10T14:25:55.629Z,3.70
2023-05-10T14:28:19.401Z,4.80
2023-05-10T14:30:41.986Z,2.47
2023-05-10T14:33:04.697Z,5.35
2023-05-10T14:35:46.343Z,4.90
2023-05-10T14:38:11.437Z,5.03
2023-05-10T14:40:34.593Z,3.75
2023-05-10T14:42:57.461Z,3.20
2023-05-10T14:45:20.625Z,3.70
2023-05-10T14:47:43.279Z,4.15
2023-05-10T14:50:06.686Z,4.25
2023-05-10T14:52:29.442Z,4.45
2023-05-10T14:54:52.089Z,3.58
2023-05-10T14:57:15.053Z,3.97
2023-05-10T14:59:37.644Z,3.63
2023-05-10T15:02:00.857Z,3.17
2023-05-10T15:04:23.747Z,3.45
2023-05-10T15:06:47.293Z,4.28
2023-05-10T15:09:10.020Z,3.78
2023-05-10T15:11:33.179Z,3.22
2023-05-10T15:13:56.120Z,2.85
2023-05-10T15:16:18.842Z,5.22
2023-05-10T15:18:41.459Z,3.80
2023-05-10T15:21:04.438Z,2.65
2023-05-10T15:23:27.634Z,3.03
2023-05-10T15:25:53.291Z,4.22
2023-05-10T15:28:15.867Z,4.47
2023-05-10T15:30:38.727Z,3.15
2023-05-10T15:33:01.356Z,3.55
2023-05-10T15:35:24.040Z,2.80
2023-05-10T15:37:48.312Z,2.70
2023-05-10T15:40:11.574Z,3.90
2023-05-10T15:42:34.249Z,3.33
2023-05-10T15:44:57.045Z,3.22
2023-05-10T15:47:19.710Z,3.30
2023-05-10T15:49:42.401Z,3.80
2023-05-10T15:52:04.976Z,3.63
2023-05-10T15:54:27.686Z,3.65
2023-05-10T15:56:50.242Z,3.00
2023-05-10T15:59:13.228Z,2.20
2023-05-10T16:01:35.877Z,2.53
2023-05-10T16:03:58.644Z,6.30
2023-05-10T16:06:21.744Z,2.85
2023-05-10T16:08:44.722Z,2.92
2023-05-10T16:11:08.201Z,4.05
2023-05-10T16:13:30.806Z,3.33
2023-05-10T16:15:53.962Z,3.45
2023-05-10T16:18:18.186Z,2.58
2023-05-10T16:20:41.559Z,3.08
2023-05-10T16:23:06.487Z,3.28
2023-05-10T16:25:29.154Z,3.42
2023-05-10T16:27:51.813Z,3.10
2023-05-10T16:30:14.644Z,3.80
2023-05-10T16:32:37.546Z,2.65
2023-05-10T16:35:00.439Z,4.95
2023-05-10T16:37:23.098Z,3.50
2023-05-10T16:39:45.743Z,7.45
2023-05-10T16:42:08.351Z,3.03
2023-05-10T16:44:31.156Z,3.08
2023-05-10T16:46:54.985Z,2.75
2023-05-10T16:49:17.772Z,4.85
2023-05-10T16:51:41.017Z,4.78
2023-05-10T16:54:03.810Z,3.30
2023-05-10T16:56:26.908Z,2.53
2023-05-10T16:58:50.063Z,4.13
2023-05-10T17:01:13.062Z,2.95
2023-05-10T17:03:35.873Z,3.78
2023-05-10T17:05:59.080Z,4.20
2023-05-10T17:08:22.167Z,5.45
2023-05-10T17:10:44.714Z,2.80
2023-05-10T17:13:09.385Z,2.67
2023-05-10T17:15:33.026Z,3.17
2023-05-10T17:17:56.350Z,3.53
2023-05-10T17:20:19.062Z,3.53
2023-05-10T17:22:41.968Z,4.32
2023-05-10T17:25:04.954Z,2.50
2023-05-10T17:27:30.215Z,2.85
2023-05-10T17:29:59.246Z,2.38
2023-05-10T17:32:21.992Z,6.65
2023-05-10T17:34:44.734Z,3.15
2023-05-10T17:37:28.205Z,2.55
2023-05-10T17:39:50.816Z,2.55
2023-05-10T17:42:15.019Z,3.92
2023-05-10T17:44:37.736Z,2.75
2023-05-10T17:47:00.339Z,2.75
2023-05-10T17:49:23.238Z,3.13
2023-05-10T17:51:48.146Z,3.40
2023-05-10T17:54:11.044Z,4.45
2023-05-10T17:56:33.686Z,2.85
2023-05-10T17:58:56.385Z,4.32
2023-05-10T18:01:19.389Z,4.10
2023-05-10T18:03:42.181Z,4.78
2023-05-10T18:06:07.766Z,4.85
2023-05-10T18:08:30.821Z,3.72
2023-05-10T18:10:53.576Z,4.60
2023-05-10T18:13:18.605Z,3.85
2023-05-10T18:15:41.302Z,4.18
2023-05-10T18:18:05.097Z,3.45
2023-05-10T18:20:28.437Z,4.45
2023-05-10T18:22:52.126Z,4.13
2023-05-10T18:25:14.988Z,3.42
2023-05-10T18:27:38.688Z,5.15
2023-05-10T18:30:01.329Z,5.20
2023-05-10T18:32:24.355Z,3.85
2023-05-10T18:34:46.936Z,4.78
2023-05-10T18:37:10.176Z,4.30
2023-05-10T18:39:34.030Z,3.80
2023-05-10T18:41:56.876Z,10.35
2023-05-10T18:44:19.806Z,3.88
2023-05-10T18:46:42.988Z,7.07
2023-05-10T18:49:06.650Z,4.85
2023-05-10T18:51:32.278Z,4.30
2023-05-10T18:53:54.843Z,5.97
2023-05-10T18:56:17.571Z,5.38
2023-05-10T18:58:40.326Z,6.40
2023-05-10T19:01:02.986Z,4.63
2023-05-10T19:03:26.103Z,4.55
2023-05-10T19:05:49.034Z,5.60
2023-05-10T19:08:11.610Z,3.83
2023-05-10T19:10:34.472Z,6.15
2023-05-10T19:12:57.525Z,4.20
2023-05-10T19:15:21.773Z,5.20
2023-05-10T19:17:45.103Z,4.63
2023-05-10T19:20:09.085Z,5.97
2023-05-10T19:22:46.998Z,5.22
2023-05-10T19:25:17.056Z,3.95
2023-05-10T19:27:39.867Z,5.20
2023-05-10T19:30:02.481Z,4.60
2023-05-10T19:32:26.261Z,7.28
2023-05-10T19:34:49.101Z,4.57
2023-05-10T19:37:12.214Z,5.82
2023-05-10T19:39:35.124Z,6.60
2023-05-10T19:41:58.166Z,4.28
2023-05-10T19:44:23.958Z,6.75
2023-05-10T19:46:46.892Z,5.15
2023-05-10T19:49:09.786Z,3.97
2023-05-10T19:51:32.963Z,4.03
2023-05-10T19:53:55.939Z,3.75
2023-05-10T19:56:18.860Z,6.47
2023-05-10T19:59:22.649Z,6.38
2023-05-10T20:01:46.259Z,5.57
2023-05-10T20:04:10.221Z,5.07
2023-05-10T20:06:33.204Z,6.53
2023-05-10T20:08:55.952Z,5.45
2023-05-10T20:11:18.627Z,4.95
2023-05-10T20:13:41.329Z,5.22
2023-05-10T20:16:05.207Z,5.22
2023-05-10T20:18:27.891Z,5.10
2023-05-10T20:20:55.111Z,6.00
2023-05-10T20:23:17.915Z,5.47
2023-05-10T20:25:40.580Z,4.72
2023-05-10T20:28:03.831Z,5.43
2023-05-10T20:30:26.845Z,6.45
2023-05-10T20:32:50.091Z,4.07
2023-05-10T20:35:12.728Z,4.68
2023-05-10T20:37:35.505Z,6.65
2023-05-10T20:39:58.156Z,4.75
2023-05-10T20:42:22.445Z,5.00
2023-05-10T20:44:45.278Z,4.03
2023-05-10T20:47:08.050Z,4.63
2023-05-10T20:49:31.009Z,4.22
2023-05-10T20:51:54.471Z,3.92
2023-05-10T20:54:17.519Z,5.30
2023-05-10T20:56:40.410Z,5.93
2023-05-10T20:59:03.105Z,4.80
2023-05-10T21:01:26.450Z,5.72
2023-05-10T21:03:49.105Z,4.13
2023-05-10T21:06:11.906Z,5.18
2023-05-10T21:08:34.663Z,4.85
2023-05-10T21:10:57.301Z,3.47
2023-05-10T21:13:19.894Z,4.63
2023-05-10T21:15:42.491Z,4.72
2023-05-10T21:18:05.858Z,5.80
2023-05-10T21:20:29.343Z,4.75
2023-05-10T21:22:51.932Z,4.70
2023-05-10T21:25:14.711Z,4.97
2023-05-10T21:27:37.509Z,6.88
2023-05-10T21:30:00.308Z,7.93
2023-05-10T21:32:23.117Z,7.25
2023-05-10T21:34:45.852Z,4.20
2023-05-10T21:37:08.529Z,4.68
2023-05-10T21:39:31.185Z,5.43
2023-05-10T21:41:53.799Z,4.38
2023-05-10T21:44:16.537Z,4.53
2023-05-10T21:46:39.163Z,5.07
2023-05-10T21:49:01.762Z,3.75
2023-05-10T21:51:24.400Z,4.93
2023-05-10T21:53:47.071Z,4.30
2023-05-10T21:56:09.676Z,4.60
2023-05-10T21:58:32.268Z,6.10
2023-05-10T22:00:54.865Z,6.10
2023-05-10T22:03:18.228Z,4.80
2023-05-10T22:05:41.015Z,4.83
2023-05-10T22:08:03.949Z,5.43
2023-05-10T22:10:26.532Z,4.70
2023-05-10T22:12:49.133Z,5.00
2023-05-10T22:15:11.924Z,4.60
2023-05-10T22:17:34.906Z,5.38
2023-05-10T22:19:57.823Z,4.78
2023-05-10T22:22:20.623Z,4.43
2023-05-10T22:24:43.350Z,5.32
2023-05-10T22:27:06.359Z,6.38
2023-05-10T22:29:30.513Z,4.87
2023-05-10T22:31:53.162Z,4.55
2023-05-10T22:34:15.890Z,5.57
2023-05-10T22:36:38.506Z,5.47
2023-05-10T22:39:01.143Z,5.80
2023-05-10T22:41:23.712Z,4.95
2023-05-10T22:43:46.428Z,4.65
2023-05-10T22:46:09.361Z,5.78
2023-05-10T22:48:34.667Z,5.22
2023-05-10T22:50:57.330Z,4.70
2023-05-10T22:53:19.974Z,4.35
2023-05-10T22:55:42.656Z,4.95
2023-05-10T22:58:06.290Z,4.40
2023-05-10T23:00:29.151Z,6.10
2023-05-10T23:02:52.104Z,5.43
2023-05-10T23:05:14.727Z,6.47
2023-05-10T23:07:37.309Z,7.20
2023-05-10T23:10:00.210Z,6.60
2023-05-10T23:12:23.115Z,6.15
2023-05-10T23:14:46.680Z,5.13
2023-05-10T23:17:09.286Z,4.68
2023-05-10T23:19:31.856Z,4.57
2023-05-10T23:21:54.776Z,4.57
2023-05-10T23:24:17.907Z,4.93
2023-05-10T23:26:40.910Z,5.88
2023-05-10T23:29:03.526Z,8.52
2023-05-10T23:31:26.122Z,5.72
2023-05-10T23:33:48.691Z,5.90
2023-05-10T23:36:11.367Z,4.22
2023-05-10T23:38:35.048Z,5.65
2023-05-10T23:40:57.715Z,6.55
2023-05-10T23:43:21.677Z,5.03
2023-05-10T23:45:52.775Z,5.43
2023-05-10T23:48:15.500Z,5.50
2023-05-10T23:50:38.153Z,5.68
2023-05-10T23:53:01.216Z,5.93
2023-05-10T23:56:05.901Z,6.15
2023-05-10T23:58:29.666Z,3.60
